Terminal Aerodrome Forecast
Issued by NWS Upton, NY

Home | Current Version | Previous Version | Text Only | Print | Product List | Glossary On
Versions: 1 2 3 4 5 6 7 8 9 10 11 12 13 14 15 16 17 18 19 20 21 22 23 24 25
000
FTUS41 KOKX 192300 RRA
TAFISP
TAF
KISP 192345Z 2000/2024 01008KT P6SM BKN250
     FM200300 04008KT P6SM BKN250
     FM201300 07010KT P6SM SKC
     FM201700 11012KT P6SM SKC
     FM202300 12008KT P6SM SKC=

USA.gov is the U.S. government's official web portal to all federal, state and local government web resources and services.